sensor_id;sensor_type;location;lat;lon;timestamp;temperature;humidity
39849;DHT22;25518;47.878;15.914;2023-09-19T00:02:10;18.40;99.90
39849;DHT22;25518;47.878;15.914;2023-09-19T00:04:42;18.40;99.90
39849;DHT22;25518;47.878;15.914;2023-09-19T00:07:13;18.40;99.90
39849;DHT22;25518;47.878;15.914;2023-09-19T00:09:44;18.40;99.90
39849;DHT22;25518;47.878;15.914;2023-09-19T00:12:15;18.30;99.90
39849;DHT22;25518;47.878;15.914;2023-09-19T00:14:46;18.30;99.90
39849;DHT22;25518;47.878;15.914;2023-09-19T00:17:18;18.30;99.90
39849;DHT22;25518;47.878;15.914;2023-09-19T00:19:49;18.30;99.90
39849;DHT22;25518;47.878;15.914;2023-09-19T00:22:23;18.40;99.90
39849;DHT22;25518;47.878;15.914;2023-09-19T00:24:56;18.30;99.90
39849;DHT22;25518;47.878;15.914;2023-09-19T00:27:28;18.30;99.90
39849;DHT22;25518;47.878;15.914;2023-09-19T00:29:59;18.30;99.90
39849;DHT22;25518;47.878;15.914;2023-09-19T00:32:30;18.20;99.90
39849;DHT22;25518;47.878;15.914;2023-09-19T00:35:01;18.10;99.90
39849;DHT22;25518;47.878;15.914;2023-09-19T00:37:33;18.10;99.90
39849;DHT22;25518;47.878;15.914;2023-09-19T00:40:05;18.00;99.90
39849;DHT22;25518;47.878;15.914;2023-09-19T00:42:38;17.90;99.90
39849;DHT22;25518;47.878;15.914;2023-09-19T00:45:11;17.60;99.90
39849;DHT22;25518;47.878;15.914;2023-09-19T00:47:44;17.50;99.90
39849;DHT22;25518;47.878;15.914;2023-09-19T00:50:18;15.30;99.90
39849;DHT22;25518;47.878;15.914;2023-09-19T00:52:54;17.10;99.90
39849;DHT22;25518;47.878;15.914;2023-09-19T00:55:30;17.00;99.90
39849;DHT22;25518;47.878;15.914;2023-09-19T00:58:03;17.00;99.90
39849;DHT22;25518;47.878;15.914;2023-09-19T01:00:37;17.10;99.90
39849;DHT22;25518;47.878;15.914;2023-09-19T01:03:09;17.00;99.90
39849;DHT22;25518;47.878;15.914;2023-09-19T01:05:41;17.10;99.90
39849;DHT22;25518;47.878;15.914;2023-09-19T01:08:13;17.30;99.90
39849;DHT22;25518;47.878;15.914;2023-09-19T01:10:56;17.20;99.90
39849;DHT22;25518;47.878;15.914;2023-09-19T01:14:23;17.10;99.90
39849;DHT22;25518;47.878;15.914;2023-09-19T01:16:50;17.10;99.90
39849;DHT22;25518;47.878;15.914;2023-09-19T01:26:11;17.00;99.90
39849;DHT22;25518;47.878;15.914;2023-09-19T01:31:45;17.00;99.90
39849;DHT22;25518;47.878;15.914;2023-09-19T01:34:16;17.00;99.90
39849;DHT22;25518;47.878;15.914;2023-09-19T01:36:48;17.00;99.90
39849;DHT22;25518;47.878;15.914;2023-09-19T01:39:19;17.00;99.90
39849;DHT22;25518;47.878;15.914;2023-09-19T01:42:08;17.00;99.90
39849;DHT22;25518;47.878;15.914;2023-09-19T01:44:44;16.90;99.90
39849;DHT22;25518;47.878;15.914;2023-09-19T01:47:28;16.80;99.90
39849;DHT22;25518;47.878;15.914;2023-09-19T01:50:09;16.90;99.90
39849;DHT22;25518;47.878;15.914;2023-09-19T01:52:48;16.90;99.90
39849;DHT22;25518;47.878;15.914;2023-09-19T01:55:22;17.00;99.90
39849;DHT22;25518;47.878;15.914;2023-09-19T01:58:01;16.90;99.90
39849;DHT22;25518;47.878;15.914;2023-09-19T02:00:37;16.70;99.90
39849;DHT22;25518;47.878;15.914;2023-09-19T02:03:12;16.70;99.90
39849;DHT22;25518;47.878;15.914;2023-09-19T02:05:52;16.60;99.90
39849;DHT22;25518;47.878;15.914;2023-09-19T02:08:24;16.40;99.90
39849;DHT22;25518;47.878;15.914;2023-09-19T02:10:55;16.20;99.90
39849;DHT22;25518;47.878;15.914;2023-09-19T02:13:26;16.30;99.90
39849;DHT22;25518;47.878;15.914;2023-09-19T02:15:59;16.10;99.90
39849;DHT22;25518;47.878;15.914;2023-09-19T02:18:31;16.20;99.90
39849;DHT22;25518;47.878;15.914;2023-09-19T02:21:02;16.20;99.90
39849;DHT22;25518;47.878;15.914;2023-09-19T02:23:37;16.30;99.90
39849;DHT22;25518;47.878;15.914;2023-09-19T02:26:08;16.20;99.90
39849;DHT22;25518;47.878;15.914;2023-09-19T02:28:40;16.30;99.90
39849;DHT22;25518;47.878;15.914;2023-09-19T02:31:11;16.40;99.90
39849;DHT22;25518;47.878;15.914;2023-09-19T02:33:42;16.40;99.90
39849;DHT22;25518;47.878;15.914;2023-09-19T02:36:13;16.20;99.90
39849;DHT22;25518;47.878;15.914;2023-09-19T02:38:47;16.10;99.90
39849;DHT22;25518;47.878;15.914;2023-09-19T02:41:18;16.00;99.90
39849;DHT22;25518;47.878;15.914;2023-09-19T02:43:49;16.10;99.90
39849;DHT22;25518;47.878;15.914;2023-09-19T02:46:20;16.00;99.90
39849;DHT22;25518;47.878;15.914;2023-09-19T02:48:51;16.10;99.90
39849;DHT22;25518;47.878;15.914;2023-09-19T02:51:22;16.00;99.90
39849;DHT22;25518;47.878;15.914;2023-09-19T02:53:53;16.00;99.90
39849;DHT22;25518;47.878;15.914;2023-09-19T02:56:25;16.10;99.90
39849;DHT22;25518;47.878;15.914;2023-09-19T02:58:56;16.10;99.90
39849;DHT22;25518;47.878;15.914;2023-09-19T03:19:03;15.80;99.90
39849;DHT22;25518;47.878;15.914;2023-09-19T03:21:34;15.70;99.90
39849;DHT22;25518;47.878;15.914;2023-09-19T03:24:05;15.50;99.90
39849;DHT22;25518;47.878;15.914;2023-09-19T03:26:37;15.50;99.90
39849;DHT22;25518;47.878;15.914;2023-09-19T03:29:09;15.60;99.90
39849;DHT22;25518;47.878;15.914;2023-09-19T03:31:40;15.60;99.90
39849;DHT22;25518;47.878;15.914;2023-09-19T03:34:11;15.50;99.90
39849;DHT22;25518;47.878;15.914;2023-09-19T03:36:42;15.40;99.90
39849;DHT22;25518;47.878;15.914;2023-09-19T03:39:13;15.20;99.90
39849;DHT22;25518;47.878;15.914;2023-09-19T03:41:46;15.30;99.90
39849;DHT22;25518;47.878;15.914;2023-09-19T03:44:17;15.30;99.90
39849;DHT22;25518;47.878;15.914;2023-09-19T03:46:48;15.40;99.90
39849;DHT22;25518;47.878;15.914;2023-09-19T03:49:19;15.40;99.90
39849;DHT22;25518;47.878;15.914;2023-09-19T03:51:50;15.50;99.90
39849;DHT22;25518;47.878;15.914;2023-09-19T03:54:21;15.50;99.90
39849;DHT22;25518;47.878;15.914;2023-09-19T03:56:52;15.50;99.90
39849;DHT22;25518;47.878;15.914;2023-09-19T03:59:22;15.40;99.90
39849;DHT22;25518;47.878;15.914;2023-09-19T04:01:53;15.40;99.90
39849;DHT22;25518;47.878;15.914;2023-09-19T04:04:27;15.30;99.90
39849;DHT22;25518;47.878;15.914;2023-09-19T04:07:00;15.20;99.90
39849;DHT22;25518;47.878;15.914;2023-09-19T04:09:30;15.10;99.90
39849;DHT22;25518;47.878;15.914;2023-09-19T04:12:02;15.00;99.90
39849;DHT22;25518;47.878;15.914;2023-09-19T04:14:33;14.90;99.90
39849;DHT22;25518;47.878;15.914;2023-09-19T04:17:03;14.90;99.90
39849;DHT22;25518;47.878;15.914;2023-09-19T04:19:36;14.90;99.90
39849;DHT22;25518;47.878;15.914;2023-09-19T04:22:07;14.90;99.90
39849;DHT22;25518;47.878;15.914;2023-09-19T04:24:38;14.70;99.90
39849;DHT22;25518;47.878;15.914;2023-09-19T04:27:09;14.00;99.90
39849;DHT22;25518;47.878;15.914;2023-09-19T04:29:40;14.60;99.90
39849;DHT22;25518;47.878;15.914;2023-09-19T04:32:12;14.60;99.90
39849;DHT22;25518;47.878;15.914;2023-09-19T04:34:44;14.60;99.90
39849;DHT22;25518;47.878;15.914;2023-09-19T04:37:14;14.60;99.90
39849;DHT22;25518;47.878;15.914;2023-09-19T04:39:45;14.60;99.90
39849;DHT22;25518;47.878;15.914;2023-09-19T04:42:16;14.60;99.90
39849;DHT22;25518;47.878;15.914;2023-09-19T04:44:48;14.50;99.90
39849;DHT22;25518;47.878;15.914;2023-09-19T04:47:20;14.40;99.90
39849;DHT22;25518;47.878;15.914;2023-09-19T04:49:52;14.30;99.90
39849;DHT22;25518;47.878;15.914;2023-09-19T04:52:23;14.50;99.90
39849;DHT22;25518;47.878;15.914;2023-09-19T04:54:54;14.70;99.90
39849;DHT22;25518;47.878;15.914;2023-09-19T04:57:26;14.80;99.90
39849;DHT22;25518;47.878;15.914;2023-09-19T04:59:57;14.70;99.90
39849;DHT22;25518;47.878;15.914;2023-09-19T05:02:29;14.70;99.90
39849;DHT22;25518;47.878;15.914;2023-09-19T05:05:01;14.60;99.90
39849;DHT22;25518;47.878;15.914;2023-09-19T05:07:32;14.50;99.90
39849;DHT22;25518;47.878;15.914;2023-09-19T05:10:05;14.50;99.90
39849;DHT22;25518;47.878;15.914;2023-09-19T05:12:37;14.60;99.90
39849;DHT22;25518;47.878;15.914;2023-09-19T05:15:09;14.80;99.90
39849;DHT22;25518;47.878;15.914;2023-09-19T05:17:40;14.80;99.90
39849;DHT22;25518;47.878;15.914;2023-09-19T05:20:11;14.70;99.90
39849;DHT22;25518;47.878;15.914;2023-09-19T05:23:01;14.90;99.90
39849;DHT22;25518;47.878;15.914;2023-09-19T05:25:33;14.90;99.90
39849;DHT22;25518;47.878;15.914;2023-09-19T05:28:09;15.10;99.90
39849;DHT22;25518;47.878;15.914;2023-09-19T05:30:42;14.90;99.90
39849;DHT22;25518;47.878;15.914;2023-09-19T05:33:14;14.80;99.90
39849;DHT22;25518;47.878;15.914;2023-09-19T05:35:45;14.80;99.90
39849;DHT22;25518;47.878;15.914;2023-09-19T05:38:17;14.80;99.90
39849;DHT22;25518;47.878;15.914;2023-09-19T05:40:50;14.70;99.90
39849;DHT22;25518;47.878;15.914;2023-09-19T05:43:21;14.70;99.90
39849;DHT22;25518;47.878;15.914;2023-09-19T05:45:52;14.60;99.90
39849;DHT22;25518;47.878;15.914;2023-09-19T05:48:23;14.60;99.90
39849;DHT22;25518;47.878;15.914;2023-09-19T05:50:54;14.80;99.90
39849;DHT22;25518;47.878;15.914;2023-09-19T05:53:25;14.80;99.90
39849;DHT22;25518;47.878;15.914;2023-09-19T05:55:56;14.90;99.90
39849;DHT22;25518;47.878;15.914;2023-09-19T05:58:27;14.90;99.90
39849;DHT22;25518;47.878;15.914;2023-09-19T06:00:58;14.90;99.90
39849;DHT22;25518;47.878;15.914;2023-09-19T06:03:29;14.90;99.90
39849;DHT22;25518;47.878;15.914;2023-09-19T06:06:02;15.10;99.90
39849;DHT22;25518;47.878;15.914;2023-09-19T06:08:33;15.00;99.90
39849;DHT22;25518;47.878;15.914;2023-09-19T06:11:04;12.90;99.90
39849;DHT22;25518;47.878;15.914;2023-09-19T06:13:37;15.00;99.90
39849;DHT22;25518;47.878;15.914;2023-09-19T06:16:10;15.10;99.90
39849;DHT22;25518;47.878;15.914;2023-09-19T06:18:41;15.20;99.90
39849;DHT22;25518;47.878;15.914;2023-09-19T06:21:11;15.10;99.90
39849;DHT22;25518;47.878;15.914;2023-09-19T06:23:42;15.30;99.90
39849;DHT22;25518;47.878;15.914;2023-09-19T06:26:13;15.40;99.90
39849;DHT22;25518;47.878;15.914;2023-09-19T06:28:44;15.60;99.90
39849;DHT22;25518;47.878;15.914;2023-09-19T06:31:16;15.80;99.90
39849;DHT22;25518;47.878;15.914;2023-09-19T06:33:47;16.00;99.90
39849;DHT22;25518;47.878;15.914;2023-09-19T06:36:17;16.10;99.90
39849;DHT22;25518;47.878;15.914;2023-09-19T06:38:50;16.10;99.90
39849;DHT22;25518;47.878;15.914;2023-09-19T06:41:22;16.10;99.90
39849;DHT22;25518;47.878;15.914;2023-09-19T06:43:55;16.10;99.90
39849;DHT22;25518;47.878;15.914;2023-09-19T06:46:26;16.20;99.90
39849;DHT22;25518;47.878;15.914;2023-09-19T06:49:03;16.30;99.90
39849;DHT22;25518;47.878;15.914;2023-09-19T06:51:36;16.40;99.90
39849;DHT22;25518;47.878;15.914;2023-09-19T06:54:08;16.60;99.90
39849;DHT22;25518;47.878;15.914;2023-09-19T06:56:39;16.80;99.90
39849;DHT22;25518;47.878;15.914;2023-09-19T06:59:12;16.80;99.90
39849;DHT22;25518;47.878;15.914;2023-09-19T07:01:45;17.00;99.90
39849;DHT22;25518;47.878;15.914;2023-09-19T07:04:17;17.00;99.90
39849;DHT22;25518;47.878;15.914;2023-09-19T07:06:50;16.80;99.90
39849;DHT22;25518;47.878;15.914;2023-09-19T07:09:21;16.90;99.90
39849;DHT22;25518;47.878;15.914;2023-09-19T07:11:53;17.10;99.90
39849;DHT22;25518;47.878;15.914;2023-09-19T07:14:24;15.40;99.90
39849;DHT22;25518;47.878;15.914;2023-09-19T07:16:55;16.90;99.90
39849;DHT22;25518;47.878;15.914;2023-09-19T07:19:26;17.00;99.90
39849;DHT22;25518;47.878;15.914;2023-09-19T07:21:59;17.10;99.90
39849;DHT22;25518;47.878;15.914;2023-09-19T07:24:33;16.60;99.90
39849;DHT22;25518;47.878;15.914;2023-09-19T07:27:04;17.00;99.90
39849;DHT22;25518;47.878;15.914;2023-09-19T07:29:35;17.20;99.90
39849;DHT22;25518;47.878;15.914;2023-09-19T07:32:06;17.20;99.90
39849;DHT22;25518;47.878;15.914;2023-09-19T07:34:38;17.10;99.90
39849;DHT22;25518;47.878;15.914;2023-09-19T07:37:11;17.20;99.90
39849;DHT22;25518;47.878;15.914;2023-09-19T07:39:43;17.10;99.90
39849;DHT22;25518;47.878;15.914;2023-09-19T07:42:15;17.20;99.90
39849;DHT22;25518;47.878;15.914;2023-09-19T07:44:48;17.20;99.90
39849;DHT22;25518;47.878;15.914;2023-09-19T07:47:21;17.30;99.90
39849;DHT22;25518;47.878;15.914;2023-09-19T07:49:52;17.20;99.90
39849;DHT22;25518;47.878;15.914;2023-09-19T07:52:23;17.30;99.90
39849;DHT22;25518;47.878;15.914;2023-09-19T07:54:57;17.50;99.90
39849;DHT22;25518;47.878;15.914;2023-09-19T07:57:28;17.30;99.90
39849;DHT22;25518;47.878;15.914;2023-09-19T07:59:59;17.30;99.90
39849;DHT22;25518;47.878;15.914;2023-09-19T08:02:35;17.40;99.90
39849;DHT22;25518;47.878;15.914;2023-09-19T08:05:08;17.20;99.90
39849;DHT22;25518;47.878;15.914;2023-09-19T08:07:42;17.20;99.90
39849;DHT22;25518;47.878;15.914;2023-09-19T08:10:15;17.20;99.90
39849;DHT22;25518;47.878;15.914;2023-09-19T08:12:48;17.10;99.90
39849;DHT22;25518;47.878;15.914;2023-09-19T08:15:20;17.10;99.90
39849;DHT22;25518;47.878;15.914;2023-09-19T08:17:50;17.20;99.90
39849;DHT22;25518;47.878;15.914;2023-09-19T08:20:21;17.30;99.90
39849;DHT22;25518;47.878;15.914;2023-09-19T08:22:53;17.40;99.90
39849;DHT22;25518;47.878;15.914;2023-09-19T08:25:25;17.00;99.90
39849;DHT22;25518;47.878;15.914;2023-09-19T08:27:57;17.50;99.90
39849;DHT22;25518;47.878;15.914;2023-09-19T08:30:30;17.60;99.90
39849;DHT22;25518;47.878;15.914;2023-09-19T08:33:01;17.60;99.90
39849;DHT22;25518;47.878;15.914;2023-09-19T08:35:35;17.70;99.90
39849;DHT22;25518;47.878;15.914;2023-09-19T08:38:06;17.90;99.90
39849;DHT22;25518;47.878;15.914;2023-09-19T08:40:38;18.00;99.90
39849;DHT22;25518;47.878;15.914;2023-09-19T08:43:12;18.00;99.90
39849;DHT22;25518;47.878;15.914;2023-09-19T08:45:43;18.10;99.90
39849;DHT22;25518;47.878;15.914;2023-09-19T08:48:31;18.00;99.90
39849;DHT22;25518;47.878;15.914;2023-09-19T08:51:07;18.00;99.90
39849;DHT22;25518;47.878;15.914;2023-09-19T08:53:58;17.90;99.90
39849;DHT22;25518;47.878;15.914;2023-09-19T08:56:32;18.10;99.90
39849;DHT22;25518;47.878;15.914;2023-09-19T08:59:04;17.80;99.90
39849;DHT22;25518;47.878;15.914;2023-09-19T09:01:38;17.80;99.90
39849;DHT22;25518;47.878;15.914;2023-09-19T09:04:12;17.90;99.90
39849;DHT22;25518;47.878;15.914;2023-09-19T09:06:44;17.90;99.90
39849;DHT22;25518;47.878;15.914;2023-09-19T09:09:20;17.70;99.90
39849;DHT22;25518;47.878;15.914;2023-09-19T09:11:52;17.90;99.90
39849;DHT22;25518;47.878;15.914;2023-09-19T09:14:24;18.10;99.90
39849;DHT22;25518;47.878;15.914;2023-09-19T09:16:56;18.20;99.90
39849;DHT22;25518;47.878;15.914;2023-09-19T09:19:30;18.30;99.90
39849;DHT22;25518;47.878;15.914;2023-09-19T09:22:10;18.60;99.90
39849;DHT22;25518;47.878;15.914;2023-09-19T09:24:58;18.90;99.90
39849;DHT22;25518;47.878;15.914;2023-09-19T09:27:29;18.80;99.90
39849;DHT22;25518;47.878;15.914;2023-09-19T09:30:01;18.80;99.90
39849;DHT22;25518;47.878;15.914;2023-09-19T09:32:32;18.80;99.90
39849;DHT22;25518;47.878;15.914;2023-09-19T09:35:08;18.70;99.90
39849;DHT22;25518;47.878;15.914;2023-09-19T09:37:43;18.70;99.90
39849;DHT22;25518;47.878;15.914;2023-09-19T09:40:14;18.80;99.90
39849;DHT22;25518;47.878;15.914;2023-09-19T09:42:45;18.80;99.90
39849;DHT22;25518;47.878;15.914;2023-09-19T09:45:21;18.70;99.90
39849;DHT22;25518;47.878;15.914;2023-09-19T09:48:07;18.70;99.90
39849;DHT22;25518;47.878;15.914;2023-09-19T09:50:48;18.80;99.90
39849;DHT22;25518;47.878;15.914;2023-09-19T09:53:27;18.60;99.90
39849;DHT22;25518;47.878;15.914;2023-09-19T09:58:48;18.80;99.90
39849;DHT22;25518;47.878;15.914;2023-09-19T10:01:21;18.90;99.90
39849;DHT22;25518;47.878;15.914;2023-09-19T10:03:57;18.80;99.90
39849;DHT22;25518;47.878;15.914;2023-09-19T10:06:40;18.90;99.90
39849;DHT22;25518;47.878;15.914;2023-09-19T10:09:18;19.00;99.90
39849;DHT22;25518;47.878;15.914;2023-09-19T10:12:07;19.20;99.90
39849;DHT22;25518;47.878;15.914;2023-09-19T10:14:41;19.30;99.90
39849;DHT22;25518;47.878;15.914;2023-09-19T10:17:18;19.40;99.90
39849;DHT22;25518;47.878;15.914;2023-09-19T10:19:54;19.20;99.90
39849;DHT22;25518;47.878;15.914;2023-09-19T10:22:28;19.30;99.90
39849;DHT22;25518;47.878;15.914;2023-09-19T10:25:04;19.40;99.90
39849;DHT22;25518;47.878;15.914;2023-09-19T10:27:39;19.50;99.90
39849;DHT22;25518;47.878;15.914;2023-09-19T10:30:11;19.30;99.90
39849;DHT22;25518;47.878;15.914;2023-09-19T10:32:42;19.20;99.90
39849;DHT22;25518;47.878;15.914;2023-09-19T10:35:15;19.30;99.90
39849;DHT22;25518;47.878;15.914;2023-09-19T10:37:47;19.20;99.90
39849;DHT22;25518;47.878;15.914;2023-09-19T10:40:21;19.30;99.90
39849;DHT22;25518;47.878;15.914;2023-09-19T10:43:05;19.40;99.90
39849;DHT22;25518;47.878;15.914;2023-09-19T10:45:36;19.40;99.90
39849;DHT22;25518;47.878;15.914;2023-09-19T10:48:11;19.50;99.90
39849;DHT22;25518;47.878;15.914;2023-09-19T10:50:47;19.40;99.90
39849;DHT22;25518;47.878;15.914;2023-09-19T10:53:20;19.30;99.90
39849;DHT22;25518;47.878;15.914;2023-09-19T10:56:01;19.10;99.90
39849;DHT22;25518;47.878;15.914;2023-09-19T10:58:40;19.10;99.90
39849;DHT22;25518;47.878;15.914;2023-09-19T11:01:16;19.20;99.90
39849;DHT22;25518;47.878;15.914;2023-09-19T11:03:48;19.20;99.90
39849;DHT22;25518;47.878;15.914;2023-09-19T11:06:19;19.20;99.90
39849;DHT22;25518;47.878;15.914;2023-09-19T11:09:07;19.30;99.90
39849;DHT22;25518;47.878;15.914;2023-09-19T11:25:41;20.90;99.90
39849;DHT22;25518;47.878;15.914;2023-09-19T11:30:52;20.40;99.90
39849;DHT22;25518;47.878;15.914;2023-09-19T11:33:30;20.40;99.90
39849;DHT22;25518;47.878;15.914;2023-09-19T11:44:31;20.10;99.90
39849;DHT22;25518;47.878;15.914;2023-09-19T11:49:29;20.00;99.90
39849;DHT22;25518;47.878;15.914;2023-09-19T11:52:04;20.00;99.90
39849;DHT22;25518;47.878;15.914;2023-09-19T11:54:36;19.90;99.90
39849;DHT22;25518;47.878;15.914;2023-09-19T11:57:20;20.10;99.90
39849;DHT22;25518;47.878;15.914;2023-09-19T11:59:52;20.40;99.90
39849;DHT22;25518;47.878;15.914;2023-09-19T12:02:39;21.00;99.90
39849;DHT22;25518;47.878;15.914;2023-09-19T12:05:11;21.20;99.90
39849;DHT22;25518;47.878;15.914;2023-09-19T12:07:43;20.80;99.90
39849;DHT22;25518;47.878;15.914;2023-09-19T12:10:18;21.00;99.90
39849;DHT22;25518;47.878;15.914;2023-09-19T12:12:52;21.10;99.90
39849;DHT22;25518;47.878;15.914;2023-09-19T12:15:25;21.00;99.90
39849;DHT22;25518;47.878;15.914;2023-09-19T12:17:59;21.30;99.90
39849;DHT22;25518;47.878;15.914;2023-09-19T12:20:45;21.20;99.90
39849;DHT22;25518;47.878;15.914;2023-09-19T12:23:18;21.20;99.90
39849;DHT22;25518;47.878;15.914;2023-09-19T12:25:50;21.10;99.90
39849;DHT22;25518;47.878;15.914;2023-09-19T12:28:27;21.10;99.90
39849;DHT22;25518;47.878;15.914;2023-09-19T12:31:08;21.30;99.90
39849;DHT22;25518;47.878;15.914;2023-09-19T12:33:39;21.10;99.90
39849;DHT22;25518;47.878;15.914;2023-09-19T12:36:20;20.90;99.90
39849;DHT22;25518;47.878;15.914;2023-09-19T12:38:59;21.00;99.90
39849;DHT22;25518;47.878;15.914;2023-09-19T12:41:31;20.90;99.90
39849;DHT22;25518;47.878;15.914;2023-09-19T12:44:02;21.10;99.90
39849;DHT22;25518;47.878;15.914;2023-09-19T12:46:37;20.80;99.90
39849;DHT22;25518;47.878;15.914;2023-09-19T12:49:17;21.00;99.90
39849;DHT22;25518;47.878;15.914;2023-09-19T12:51:49;20.70;99.90
39849;DHT22;25518;47.878;15.914;2023-09-19T12:54:25;20.70;99.90
39849;DHT22;25518;47.878;15.914;2023-09-19T12:57:23;20.60;99.90
39849;DHT22;25518;47.878;15.914;2023-09-19T12:59:56;20.60;99.90
39849;DHT22;25518;47.878;15.914;2023-09-19T13:02:28;20.60;99.90
39849;DHT22;25518;47.878;15.914;2023-09-19T13:04:59;20.70;99.90
39849;DHT22;25518;47.878;15.914;2023-09-19T13:07:46;20.70;99.90
39849;DHT22;25518;47.878;15.914;2023-09-19T13:10:17;20.80;99.90
39849;DHT22;25518;47.878;15.914;2023-09-19T13:12:51;21.00;99.90
39849;DHT22;25518;47.878;15.914;2023-09-19T13:15:22;21.20;99.90
39849;DHT22;25518;47.878;15.914;2023-09-19T13:17:56;21.30;99.90
39849;DHT22;25518;47.878;15.914;2023-09-19T13:20:30;21.00;99.90
39849;DHT22;25518;47.878;15.914;2023-09-19T13:23:26;21.10;99.90
39849;DHT22;25518;47.878;15.914;2023-09-19T13:25:57;21.40;99.90
39849;DHT22;25518;47.878;15.914;2023-09-19T13:28:28;21.20;99.90
39849;DHT22;25518;47.878;15.914;2023-09-19T13:30:59;21.20;99.90
39849;DHT22;25518;47.878;15.914;2023-09-19T13:33:32;21.20;99.90
39849;DHT22;25518;47.878;15.914;2023-09-19T13:36:03;20.90;99.90
39849;DHT22;25518;47.878;15.914;2023-09-19T13:38:35;20.60;99.90
39849;DHT22;25518;47.878;15.914;2023-09-19T13:41:06;20.50;99.90
39849;DHT22;25518;47.878;15.914;2023-09-19T13:43:38;20.30;99.90
39849;DHT22;25518;47.878;15.914;2023-09-19T13:46:09;20.10;99.90
39849;DHT22;25518;47.878;15.914;2023-09-19T13:48:45;20.00;99.90
39849;DHT22;25518;47.878;15.914;2023-09-19T13:51:16;20.00;99.90
39849;DHT22;25518;47.878;15.914;2023-09-19T13:53:49;20.20;99.90
39849;DHT22;25518;47.878;15.914;2023-09-19T13:56:21;20.50;99.90
39849;DHT22;25518;47.878;15.914;2023-09-19T13:58:52;21.40;99.90
39849;DHT22;25518;47.878;15.914;2023-09-19T14:01:24;21.90;99.90
39849;DHT22;25518;47.878;15.914;2023-09-19T14:03:57;22.50;99.90
39849;DHT22;25518;47.878;15.914;2023-09-19T14:06:28;22.30;99.90
39849;DHT22;25518;47.878;15.914;2023-09-19T14:08:59;21.60;99.90
39849;DHT22;25518;47.878;15.914;2023-09-19T14:11:32;22.00;99.90
39849;DHT22;25518;47.878;15.914;2023-09-19T14:14:03;22.30;99.90
39849;DHT22;25518;47.878;15.914;2023-09-19T14:16:35;22.70;99.90
39849;DHT22;25518;47.878;15.914;2023-09-19T14:19:07;24.60;99.90
39849;DHT22;25518;47.878;15.914;2023-09-19T14:21:38;24.30;99.90
39849;DHT22;25518;47.878;15.914;2023-09-19T14:24:10;23.00;99.90
39849;DHT22;25518;47.878;15.914;2023-09-19T14:26:42;22.10;99.90
39849;DHT22;25518;47.878;15.914;2023-09-19T14:29:13;22.10;99.90
39849;DHT22;25518;47.878;15.914;2023-09-19T14:31:45;22.20;99.90
39849;DHT22;25518;47.878;15.914;2023-09-19T14:34:15;23.00;99.90
39849;DHT22;25518;47.878;15.914;2023-09-19T14:36:47;23.20;99.90
39849;DHT22;25518;47.878;15.914;2023-09-19T14:39:19;22.90;99.90
39849;DHT22;25518;47.878;15.914;2023-09-19T14:41:50;22.00;99.90
39849;DHT22;25518;47.878;15.914;2023-09-19T14:44:22;21.80;99.90
39849;DHT22;25518;47.878;15.914;2023-09-19T14:46:53;21.50;99.90
39849;DHT22;25518;47.878;15.914;2023-09-19T14:49:25;21.40;99.90
39849;DHT22;25518;47.878;15.914;2023-09-19T14:51:57;21.20;99.90
39849;DHT22;25518;47.878;15.914;2023-09-19T14:54:28;21.50;99.90
39849;DHT22;25518;47.878;15.914;2023-09-19T14:57:00;21.50;99.90
39849;DHT22;25518;47.878;15.914;2023-09-19T14:59:35;21.30;99.90
39849;DHT22;25518;47.878;15.914;2023-09-19T15:02:07;21.20;99.90
39849;DHT22;25518;47.878;15.914;2023-09-19T15:04:39;21.20;99.90
39849;DHT22;25518;47.878;15.914;2023-09-19T15:07:11;21.10;99.90
39849;DHT22;25518;47.878;15.914;2023-09-19T15:09:42;21.00;99.90
39849;DHT22;25518;47.878;15.914;2023-09-19T15:12:14;20.90;99.90
39849;DHT22;25518;47.878;15.914;2023-09-19T15:14:45;20.20;99.90
39849;DHT22;25518;47.878;15.914;2023-09-19T15:17:16;21.00;99.90
39849;DHT22;25518;47.878;15.914;2023-09-19T15:19:50;20.90;99.90
39849;DHT22;25518;47.878;15.914;2023-09-19T15:22:21;20.80;99.90
39849;DHT22;25518;47.878;15.914;2023-09-19T15:24:52;20.90;99.90
39849;DHT22;25518;47.878;15.914;2023-09-19T15:27:23;20.80;99.90
39849;DHT22;25518;47.878;15.914;2023-09-19T15:29:53;20.90;99.90
39849;DHT22;25518;47.878;15.914;2023-09-19T15:32:25;21.10;99.90
39849;DHT22;25518;47.878;15.914;2023-09-19T15:34:56;21.10;99.90
39849;DHT22;25518;47.878;15.914;2023-09-19T15:37:27;21.00;99.90
39849;DHT22;25518;47.878;15.914;2023-09-19T15:39:58;21.10;99.90
39849;DHT22;25518;47.878;15.914;2023-09-19T15:42:29;21.40;99.90
39849;DHT22;25518;47.878;15.914;2023-09-19T15:45:00;21.40;99.90
39849;DHT22;25518;47.878;15.914;2023-09-19T15:47:31;21.20;99.90
39849;DHT22;25518;47.878;15.914;2023-09-19T15:50:01;20.80;99.90
39849;DHT22;25518;47.878;15.914;2023-09-19T15:52:33;20.60;99.90
39849;DHT22;25518;47.878;15.914;2023-09-19T15:55:04;20.50;99.90
39849;DHT22;25518;47.878;15.914;2023-09-19T15:57:37;20.40;99.90
39849;DHT22;25518;47.878;15.914;2023-09-19T16:00:09;20.40;99.90
39849;DHT22;25518;47.878;15.914;2023-09-19T16:02:45;20.50;99.90
39849;DHT22;25518;47.878;15.914;2023-09-19T16:05:18;20.50;99.90
39849;DHT22;25518;47.878;15.914;2023-09-19T16:07:48;20.30;99.90
39849;DHT22;25518;47.878;15.914;2023-09-19T16:10:19;20.10;99.90
39849;DHT22;25518;47.878;15.914;2023-09-19T16:12:52;20.00;99.90
39849;DHT22;25518;47.878;15.914;2023-09-19T16:15:23;19.90;99.90
39849;DHT22;25518;47.878;15.914;2023-09-19T16:17:54;19.70;99.90
39849;DHT22;25518;47.878;15.914;2023-09-19T16:20:25;19.60;99.90
39849;DHT22;25518;47.878;15.914;2023-09-19T16:22:58;19.40;99.90
39849;DHT22;25518;47.878;15.914;2023-09-19T16:25:29;19.20;99.90
39849;DHT22;25518;47.878;15.914;2023-09-19T16:28:00;19.20;99.90
39849;DHT22;25518;47.878;15.914;2023-09-19T16:30:32;19.10;99.90
39849;DHT22;25518;47.878;15.914;2023-09-19T16:33:05;19.00;99.90
39849;DHT22;25518;47.878;15.914;2023-09-19T16:35:37;18.90;99.90
39849;DHT22;25518;47.878;15.914;2023-09-19T16:38:09;18.70;99.90
39849;DHT22;25518;47.878;15.914;2023-09-19T16:40:52;18.40;99.90
39849;DHT22;25518;47.878;15.914;2023-09-19T16:43:25;18.40;99.90
39849;DHT22;25518;47.878;15.914;2023-09-19T16:45:59;18.30;99.90
39849;DHT22;25518;47.878;15.914;2023-09-19T16:48:30;18.20;99.90
39849;DHT22;25518;47.878;15.914;2023-09-19T16:51:03;17.80;99.90